sensor_id;sensor_type;location;lat;lon;timestamp;temperature;humidity
67817;DHT22;54614;47.576;7.524;2023-04-08T00:00:49;23.30;48.00
67817;DHT22;54614;47.576;7.524;2023-04-08T00:03:15;23.30;48.30
67817;DHT22;54614;47.576;7.524;2023-04-08T00:05:41;23.30;48.30
67817;DHT22;54614;47.576;7.524;2023-04-08T00:08:07;23.30;48.10
67817;DHT22;54614;47.576;7.524;2023-04-08T00:10:32;23.30;48.30
67817;DHT22;54614;47.576;7.524;2023-04-08T00:12:58;23.40;48.20
67817;DHT22;54614;47.576;7.524;2023-04-08T00:15:25;23.30;48.40
67817;DHT22;54614;47.576;7.524;2023-04-08T00:17:51;23.20;48.00
67817;DHT22;54614;47.576;7.524;2023-04-08T00:20:19;23.20;48.10
67817;DHT22;54614;47.576;7.524;2023-04-08T00:22:46;23.20;47.80
67817;DHT22;54614;47.576;7.524;2023-04-08T00:25:12;23.30;48.10
67817;DHT22;54614;47.576;7.524;2023-04-08T00:27:38;23.20;48.00
67817;DHT22;54614;47.576;7.524;2023-04-08T00:30:04;23.20;48.00
67817;DHT22;54614;47.576;7.524;2023-04-08T00:32:31;23.20;47.90
67817;DHT22;54614;47.576;7.524;2023-04-08T00:34:57;23.20;48.00
67817;DHT22;54614;47.576;7.524;2023-04-08T00:37:23;23.20;48.00
67817;DHT22;54614;47.576;7.524;2023-04-08T00:39:50;23.20;47.90
67817;DHT22;54614;47.576;7.524;2023-04-08T00:42:18;23.20;47.70
67817;DHT22;54614;47.576;7.524;2023-04-08T00:44:46;22.80;47.70
67817;DHT22;54614;47.576;7.524;2023-04-08T00:47:13;23.20;47.80
67817;DHT22;54614;47.576;7.524;2023-04-08T00:49:41;23.20;47.70
67817;DHT22;54614;47.576;7.524;2023-04-08T00:52:07;22.60;47.60
67817;DHT22;54614;47.576;7.524;2023-04-08T00:54:35;23.20;48.30
67817;DHT22;54614;47.576;7.524;2023-04-08T00:57:03;23.20;48.00
67817;DHT22;54614;47.576;7.524;2023-04-08T00:59:30;23.30;47.90
67817;DHT22;54614;47.576;7.524;2023-04-08T01:02:11;23.20;47.80
67817;DHT22;54614;47.576;7.524;2023-04-08T01:04:58;23.10;47.70
67817;DHT22;54614;47.576;7.524;2023-04-08T01:07:31;23.10;47.70
67817;DHT22;54614;47.576;7.524;2023-04-08T01:10:16;23.10;47.80
67817;DHT22;54614;47.576;7.524;2023-04-08T01:12:58;23.10;47.70
67817;DHT22;54614;47.576;7.524;2023-04-08T01:15:28;22.90;47.60
67817;DHT22;54614;47.576;7.524;2023-04-08T01:17:56;23.10;47.70
67817;DHT22;54614;47.576;7.524;2023-04-08T01:20:25;22.90;47.70
67817;DHT22;54614;47.576;7.524;2023-04-08T01:25:35;23.10;47.90
67817;DHT22;54614;47.576;7.524;2023-04-08T01:28:06;23.10;47.70
67817;DHT22;54614;47.576;7.524;2023-04-08T01:30:37;23.10;47.80
67817;DHT22;54614;47.576;7.524;2023-04-08T01:33:05;22.80;47.70
67817;DHT22;54614;47.576;7.524;2023-04-08T01:35:32;23.10;47.80
67817;DHT22;54614;47.576;7.524;2023-04-08T01:37:59;22.90;48.00
67817;DHT22;54614;47.576;7.524;2023-04-08T01:40:27;23.10;47.80
67817;DHT22;54614;47.576;7.524;2023-04-08T01:42:55;23.10;47.90
67817;DHT22;54614;47.576;7.524;2023-04-08T01:45:22;23.10;47.70
67817;DHT22;54614;47.576;7.524;2023-04-08T01:47:50;23.10;47.90
67817;DHT22;54614;47.576;7.524;2023-04-08T01:50:18;23.10;47.70
67817;DHT22;54614;47.576;7.524;2023-04-08T01:52:47;23.00;47.70
67817;DHT22;54614;47.576;7.524;2023-04-08T01:55:15;23.00;47.60
67817;DHT22;54614;47.576;7.524;2023-04-08T01:57:44;23.00;47.80
67817;DHT22;54614;47.576;7.524;2023-04-08T02:00:17;23.00;47.80
67817;DHT22;54614;47.576;7.524;2023-04-08T02:02:46;23.00;47.70
67817;DHT22;54614;47.576;7.524;2023-04-08T02:05:14;23.00;47.70
67817;DHT22;54614;47.576;7.524;2023-04-08T02:07:40;23.00;47.90
67817;DHT22;54614;47.576;7.524;2023-04-08T02:10:06;23.00;48.10
67817;DHT22;54614;47.576;7.524;2023-04-08T02:12:33;23.00;47.80
67817;DHT22;54614;47.576;7.524;2023-04-08T02:14:59;23.00;48.00
67817;DHT22;54614;47.576;7.524;2023-04-08T02:17:33;23.80;48.30
67817;DHT22;54614;47.576;7.524;2023-04-08T02:20:21;23.00;47.70
67817;DHT22;54614;47.576;7.524;2023-04-08T02:23:05;23.00;47.70
67817;DHT22;54614;47.576;7.524;2023-04-08T02:25:37;23.00;47.80
67817;DHT22;54614;47.576;7.524;2023-04-08T02:28:09;23.40;47.90
67817;DHT22;54614;47.576;7.524;2023-04-08T02:30:39;22.90;47.70
67817;DHT22;54614;47.576;7.524;2023-04-08T02:33:07;22.90;47.80
67817;DHT22;54614;47.576;7.524;2023-04-08T02:35:35;23.00;47.80
67817;DHT22;54614;47.576;7.524;2023-04-08T02:38:01;22.90;47.70
67817;DHT22;54614;47.576;7.524;2023-04-08T02:40:31;23.00;48.20
67817;DHT22;54614;47.576;7.524;2023-04-08T02:43:00;22.90;47.70
67817;DHT22;54614;47.576;7.524;2023-04-08T02:45:29;23.10;47.90
67817;DHT22;54614;47.576;7.524;2023-04-08T02:47:58;22.90;47.70
67817;DHT22;54614;47.576;7.524;2023-04-08T02:50:25;22.90;47.70
67817;DHT22;54614;47.576;7.524;2023-04-08T02:52:50;22.90;48.40
67817;DHT22;54614;47.576;7.524;2023-04-08T02:55:16;22.90;48.00
67817;DHT22;54614;47.576;7.524;2023-04-08T02:57:42;22.90;48.10
67817;DHT22;54614;47.576;7.524;2023-04-08T03:00:09;23.00;48.00
67817;DHT22;54614;47.576;7.524;2023-04-08T03:02:35;22.90;47.70
67817;DHT22;54614;47.576;7.524;2023-04-08T03:05:01;22.90;48.20
67817;DHT22;54614;47.576;7.524;2023-04-08T03:07:28;22.90;47.80
67817;DHT22;54614;47.576;7.524;2023-04-08T03:09:54;22.90;48.00
67817;DHT22;54614;47.576;7.524;2023-04-08T03:12:20;22.80;47.80
67817;DHT22;54614;47.576;7.524;2023-04-08T03:14:47;22.90;47.50
67817;DHT22;54614;47.576;7.524;2023-04-08T03:17:13;23.00;47.60
67817;DHT22;54614;47.576;7.524;2023-04-08T03:19:40;22.90;47.70
67817;DHT22;54614;47.576;7.524;2023-04-08T03:22:05;23.00;47.90
67817;DHT22;54614;47.576;7.524;2023-04-08T03:24:31;22.80;47.90
67817;DHT22;54614;47.576;7.524;2023-04-08T03:26:57;22.20;47.50
67817;DHT22;54614;47.576;7.524;2023-04-08T03:29:23;22.80;47.80
67817;DHT22;54614;47.576;7.524;2023-04-08T03:31:49;22.70;47.60
67817;DHT22;54614;47.576;7.524;2023-04-08T03:34:14;22.90;47.90
67817;DHT22;54614;47.576;7.524;2023-04-08T03:36:40;22.80;47.80
67817;DHT22;54614;47.576;7.524;2023-04-08T03:39:06;22.90;47.90
67817;DHT22;54614;47.576;7.524;2023-04-08T03:41:32;22.90;48.30
67817;DHT22;54614;47.576;7.524;2023-04-08T03:43:58;22.90;48.10
67817;DHT22;54614;47.576;7.524;2023-04-08T03:46:23;23.00;48.30
67817;DHT22;54614;47.576;7.524;2023-04-08T03:48:49;22.70;48.00
67817;DHT22;54614;47.576;7.524;2023-04-08T03:51:15;22.80;48.10
67817;DHT22;54614;47.576;7.524;2023-04-08T03:53:41;22.80;48.20
67817;DHT22;54614;47.576;7.524;2023-04-08T03:56:07;22.80;48.10
67817;DHT22;54614;47.576;7.524;2023-04-08T03:58:33;22.80;48.60
67817;DHT22;54614;47.576;7.524;2023-04-08T04:00:58;22.80;47.80
67817;DHT22;54614;47.576;7.524;2023-04-08T04:03:24;22.80;49.00
67817;DHT22;54614;47.576;7.524;2023-04-08T04:05:50;22.80;48.00
67817;DHT22;54614;47.576;7.524;2023-04-08T04:08:16;22.80;48.00
67817;DHT22;54614;47.576;7.524;2023-04-08T04:10:42;22.90;47.90
67817;DHT22;54614;47.576;7.524;2023-04-08T04:13:08;22.80;48.20
67817;DHT22;54614;47.576;7.524;2023-04-08T04:15:37;22.70;48.10
67817;DHT22;54614;47.576;7.524;2023-04-08T04:18:04;22.80;48.00
67817;DHT22;54614;47.576;7.524;2023-04-08T04:20:30;22.70;47.90
67817;DHT22;54614;47.576;7.524;2023-04-08T04:22:56;22.80;48.80
67817;DHT22;54614;47.576;7.524;2023-04-08T04:25:22;22.80;48.60
67817;DHT22;54614;47.576;7.524;2023-04-08T04:27:49;22.80;48.40
67817;DHT22;54614;47.576;7.524;2023-04-08T04:30:16;22.80;48.70
67817;DHT22;54614;47.576;7.524;2023-04-08T04:32:43;22.80;48.30
67817;DHT22;54614;47.576;7.524;2023-04-08T04:35:10;22.70;48.30
67817;DHT22;54614;47.576;7.524;2023-04-08T04:37:36;22.70;47.90
67817;DHT22;54614;47.576;7.524;2023-04-08T04:40:05;22.90;48.50
67817;DHT22;54614;47.576;7.524;2023-04-08T04:42:32;22.80;48.20
67817;DHT22;54614;47.576;7.524;2023-04-08T04:44:58;22.70;48.30
67817;DHT22;54614;47.576;7.524;2023-04-08T04:47:24;22.70;48.60
67817;DHT22;54614;47.576;7.524;2023-04-08T04:49:50;22.90;48.40
67817;DHT22;54614;47.576;7.524;2023-04-08T04:52:16;22.70;48.80
67817;DHT22;54614;47.576;7.524;2023-04-08T04:54:42;22.70;48.90
67817;DHT22;54614;47.576;7.524;2023-04-08T04:57:08;22.70;48.80
67817;DHT22;54614;47.576;7.524;2023-04-08T04:59:35;22.80;48.60
67817;DHT22;54614;47.576;7.524;2023-04-08T05:02:02;22.70;48.40
67817;DHT22;54614;47.576;7.524;2023-04-08T05:04:28;22.70;48.30
67817;DHT22;54614;47.576;7.524;2023-04-08T05:06:53;22.50;48.60
67817;DHT22;54614;47.576;7.524;2023-04-08T05:09:19;22.60;49.30
67817;DHT22;54614;47.576;7.524;2023-04-08T05:11:45;22.60;48.90
67817;DHT22;54614;47.576;7.524;2023-04-08T05:14:11;22.20;48.40
67817;DHT22;54614;47.576;7.524;2023-04-08T05:16:37;22.80;48.90
67817;DHT22;54614;47.576;7.524;2023-04-08T05:19:03;22.70;49.10
67817;DHT22;54614;47.576;7.524;2023-04-08T05:21:29;22.70;48.80
67817;DHT22;54614;47.576;7.524;2023-04-08T05:23:57;22.50;48.90
67817;DHT22;54614;47.576;7.524;2023-04-08T05:26:22;22.70;48.80
67817;DHT22;54614;47.576;7.524;2023-04-08T05:28:49;22.70;48.90
67817;DHT22;54614;47.576;7.524;2023-04-08T05:31:18;22.60;48.50
67817;DHT22;54614;47.576;7.524;2023-04-08T05:33:45;22.80;48.70
67817;DHT22;54614;47.576;7.524;2023-04-08T05:36:11;22.80;48.50
67817;DHT22;54614;47.576;7.524;2023-04-08T05:38:39;22.60;48.10
67817;DHT22;54614;47.576;7.524;2023-04-08T05:41:07;22.70;48.10
67817;DHT22;54614;47.576;7.524;2023-04-08T05:43:33;22.70;49.00
67817;DHT22;54614;47.576;7.524;2023-04-08T05:45:59;22.70;48.60
67817;DHT22;54614;47.576;7.524;2023-04-08T05:48:25;22.90;49.00
67817;DHT22;54614;47.576;7.524;2023-04-08T05:50:51;22.70;48.80
67817;DHT22;54614;47.576;7.524;2023-04-08T05:53:16;22.70;48.90
67817;DHT22;54614;47.576;7.524;2023-04-08T05:55:42;22.70;49.10
67817;DHT22;54614;47.576;7.524;2023-04-08T05:58:08;22.70;49.20
67817;DHT22;54614;47.576;7.524;2023-04-08T06:00:34;22.60;49.20
67817;DHT22;54614;47.576;7.524;2023-04-08T06:03:00;22.70;48.80
67817;DHT22;54614;47.576;7.524;2023-04-08T06:05:25;22.70;48.90
67817;DHT22;54614;47.576;7.524;2023-04-08T06:07:51;22.70;48.80
67817;DHT22;54614;47.576;7.524;2023-04-08T06:10:17;22.70;48.80
67817;DHT22;54614;47.576;7.524;2023-04-08T06:12:43;22.70;48.50
67817;DHT22;54614;47.576;7.524;2023-04-08T06:15:09;22.70;48.80
67817;DHT22;54614;47.576;7.524;2023-04-08T06:17:36;22.70;48.40
67817;DHT22;54614;47.576;7.524;2023-04-08T06:20:03;22.90;48.30
67817;DHT22;54614;47.576;7.524;2023-04-08T06:22:30;22.70;48.20
67817;DHT22;54614;47.576;7.524;2023-04-08T06:24:56;22.70;48.80
67817;DHT22;54614;47.576;7.524;2023-04-08T06:27:22;22.70;48.80
67817;DHT22;54614;47.576;7.524;2023-04-08T06:29:48;22.70;48.80
67817;DHT22;54614;47.576;7.524;2023-04-08T06:32:13;22.70;48.70
67817;DHT22;54614;47.576;7.524;2023-04-08T06:34:40;22.60;48.70
67817;DHT22;54614;47.576;7.524;2023-04-08T06:37:06;22.70;49.10
67817;DHT22;54614;47.576;7.524;2023-04-08T06:39:32;22.60;48.60
67817;DHT22;54614;47.576;7.524;2023-04-08T06:41:58;22.70;48.60
67817;DHT22;54614;47.576;7.524;2023-04-08T06:44:24;22.70;48.80
67817;DHT22;54614;47.576;7.524;2023-04-08T06:46:50;22.60;48.80
67817;DHT22;54614;47.576;7.524;2023-04-08T06:49:16;22.70;48.60
67817;DHT22;54614;47.576;7.524;2023-04-08T06:51:42;22.80;48.60
67817;DHT22;54614;47.576;7.524;2023-04-08T06:54:08;22.80;48.70
67817;DHT22;54614;47.576;7.524;2023-04-08T06:56:35;22.70;48.70
67817;DHT22;54614;47.576;7.524;2023-04-08T06:59:02;22.70;48.30
67817;DHT22;54614;47.576;7.524;2023-04-08T07:01:29;22.70;48.60
67817;DHT22;54614;47.576;7.524;2023-04-08T07:03:56;22.80;48.50
67817;DHT22;54614;47.576;7.524;2023-04-08T07:06:22;22.70;48.40
67817;DHT22;54614;47.576;7.524;2023-04-08T07:08:48;22.70;48.60
67817;DHT22;54614;47.576;7.524;2023-04-08T07:11:15;22.70;48.50
67817;DHT22;54614;47.576;7.524;2023-04-08T07:13:41;22.70;48.50
67817;DHT22;54614;47.576;7.524;2023-04-08T07:16:07;22.70;48.60
67817;DHT22;54614;47.576;7.524;2023-04-08T07:18:32;22.70;48.60
67817;DHT22;54614;47.576;7.524;2023-04-08T07:20:58;22.80;49.10
67817;DHT22;54614;47.576;7.524;2023-04-08T07:23:25;22.80;49.20
67817;DHT22;54614;47.576;7.524;2023-04-08T07:25:52;22.80;49.40
67817;DHT22;54614;47.576;7.524;2023-04-08T07:28:19;22.80;49.30
67817;DHT22;54614;47.576;7.524;2023-04-08T07:30:45;23.00;49.20
67817;DHT22;54614;47.576;7.524;2023-04-08T07:33:11;22.90;52.60
67817;DHT22;54614;47.576;7.524;2023-04-08T07:35:37;22.70;53.00
67817;DHT22;54614;47.576;7.524;2023-04-08T07:38:03;22.70;52.40
67817;DHT22;54614;47.576;7.524;2023-04-08T07:40:33;22.60;52.20
67817;DHT22;54614;47.576;7.524;2023-04-08T07:42:59;22.60;51.90
67817;DHT22;54614;47.576;7.524;2023-04-08T07:45:25;22.80;51.00
67817;DHT22;54614;47.576;7.524;2023-04-08T07:47:50;22.70;51.10
67817;DHT22;54614;47.576;7.524;2023-04-08T07:50:16;22.80;50.80
67817;DHT22;54614;47.576;7.524;2023-04-08T07:52:42;22.80;50.90
67817;DHT22;54614;47.576;7.524;2023-04-08T07:55:08;22.90;50.00
67817;DHT22;54614;47.576;7.524;2023-04-08T07:57:34;22.80;50.20
67817;DHT22;54614;47.576;7.524;2023-04-08T08:00:00;22.90;50.00
67817;DHT22;54614;47.576;7.524;2023-04-08T08:02:26;22.90;50.20
67817;DHT22;54614;47.576;7.524;2023-04-08T08:04:52;23.00;49.90
67817;DHT22;54614;47.576;7.524;2023-04-08T08:07:17;23.10;49.90
67817;DHT22;54614;47.576;7.524;2023-04-08T08:09:43;22.90;49.60
67817;DHT22;54614;47.576;7.524;2023-04-08T08:12:09;23.00;49.40
67817;DHT22;54614;47.576;7.524;2023-04-08T08:14:36;23.00;49.40
67817;DHT22;54614;47.576;7.524;2023-04-08T08:17:03;23.10;49.00
67817;DHT22;54614;47.576;7.524;2023-04-08T08:19:29;23.00;49.00
67817;DHT22;54614;47.576;7.524;2023-04-08T08:21:55;23.20;49.30
67817;DHT22;54614;47.576;7.524;2023-04-08T08:24:21;23.10;49.40
67817;DHT22;54614;47.576;7.524;2023-04-08T08:26:47;23.10;49.00
67817;DHT22;54614;47.576;7.524;2023-04-08T08:29:13;23.10;49.30
67817;DHT22;54614;47.576;7.524;2023-04-08T08:31:39;22.90;49.00
67817;DHT22;54614;47.576;7.524;2023-04-08T08:34:05;23.10;49.10
67817;DHT22;54614;47.576;7.524;2023-04-08T08:36:31;23.10;49.10
67817;DHT22;54614;47.576;7.524;2023-04-08T08:38:57;23.10;49.10
67817;DHT22;54614;47.576;7.524;2023-04-08T08:41:22;23.10;49.10
67817;DHT22;54614;47.576;7.524;2023-04-08T08:43:48;23.10;49.30
67817;DHT22;54614;47.576;7.524;2023-04-08T08:46:16;23.10;48.80
67817;DHT22;54614;47.576;7.524;2023-04-08T08:48:43;23.10;48.50
67817;DHT22;54614;47.576;7.524;2023-04-08T08:51:11;23.20;48.70
67817;DHT22;54614;47.576;7.524;2023-04-08T08:53:38;23.20;48.50
67817;DHT22;54614;47.576;7.524;2023-04-08T08:56:07;23.20;49.30
67817;DHT22;54614;47.576;7.524;2023-04-08T08:58:33;23.20;48.50
67817;DHT22;54614;47.576;7.524;2023-04-08T09:00:59;23.20;49.00
67817;DHT22;54614;47.576;7.524;2023-04-08T09:03:26;23.20;48.90
67817;DHT22;54614;47.576;7.524;2023-04-08T09:05:55;23.20;48.60
67817;DHT22;54614;47.576;7.524;2023-04-08T09:08:33;23.20;48.80
67817;DHT22;54614;47.576;7.524;2023-04-08T09:11:19;23.20;48.70
67817;DHT22;54614;47.576;7.524;2023-04-08T09:13:48;23.30;48.60
67817;DHT22;54614;47.576;7.524;2023-04-08T09:16:16;23.10;48.70
67817;DHT22;54614;47.576;7.524;2023-04-08T09:18:43;23.20;48.70
67817;DHT22;54614;47.576;7.524;2023-04-08T09:21:12;23.20;48.60
67817;DHT22;54614;47.576;7.524;2023-04-08T09:23:44;23.30;48.80
67817;DHT22;54614;47.576;7.524;2023-04-08T09:26:17;23.30;48.70
67817;DHT22;54614;47.576;7.524;2023-04-08T09:31:31;23.20;48.70
67817;DHT22;54614;47.576;7.524;2023-04-08T09:34:13;23.30;48.70
67817;DHT22;54614;47.576;7.524;2023-04-08T09:36:48;23.20;48.50
67817;DHT22;54614;47.576;7.524;2023-04-08T09:39:15;23.30;48.80
67817;DHT22;54614;47.576;7.524;2023-04-08T09:41:43;23.30;48.90
67817;DHT22;54614;47.576;7.524;2023-04-08T09:44:10;23.30;48.70
67817;DHT22;54614;47.576;7.524;2023-04-08T09:49:33;23.30;48.80
67817;DHT22;54614;47.576;7.524;2023-04-08T09:52:10;23.30;48.60
67817;DHT22;54614;47.576;7.524;2023-04-08T09:55:02;23.30;48.70
67817;DHT22;54614;47.576;7.524;2023-04-08T10:00:18;23.10;48.60
67817;DHT22;54614;47.576;7.524;2023-04-08T10:05:30;23.30;48.60
67817;DHT22;54614;47.576;7.524;2023-04-08T10:07:58;23.40;49.00
67817;DHT22;54614;47.576;7.524;2023-04-08T10:10:24;23.30;49.00
67817;DHT22;54614;47.576;7.524;2023-04-08T10:12:51;23.00;48.80
67817;DHT22;54614;47.576;7.524;2023-04-08T10:15:25;23.30;49.10
67817;DHT22;54614;47.576;7.524;2023-04-08T10:20:46;23.30;49.10
67817;DHT22;54614;47.576;7.524;2023-04-08T10:23:15;23.30;48.80
67817;DHT22;54614;47.576;7.524;2023-04-08T10:25:46;23.20;48.80
67817;DHT22;54614;47.576;7.524;2023-04-08T10:30:50;23.20;48.90
67817;DHT22;54614;47.576;7.524;2023-04-08T10:33:22;23.20;49.00
67817;DHT22;54614;47.576;7.524;2023-04-08T10:38:36;23.20;49.00
67817;DHT22;54614;47.576;7.524;2023-04-08T10:41:02;23.10;49.00
67817;DHT22;54614;47.576;7.524;2023-04-08T10:43:34;23.40;49.30
67817;DHT22;54614;47.576;7.524;2023-04-08T10:46:02;23.20;49.10
67817;DHT22;54614;47.576;7.524;2023-04-08T10:48:29;23.20;49.20
67817;DHT22;54614;47.576;7.524;2023-04-08T10:53:35;23.30;49.10
67817;DHT22;54614;47.576;7.524;2023-04-08T10:58:52;23.30;49.30
67817;DHT22;54614;47.576;7.524;2023-04-08T11:01:23;23.30;49.10
67817;DHT22;54614;47.576;7.524;2023-04-08T11:03:50;22.30;49.60
67817;DHT22;54614;47.576;7.524;2023-04-08T11:06:16;23.30;49.70
67817;DHT22;54614;47.576;7.524;2023-04-08T11:08:42;23.30;50.00
67817;DHT22;54614;47.576;7.524;2023-04-08T11:11:11;23.30;49.60
67817;DHT22;54614;47.576;7.524;2023-04-08T11:13:43;23.30;49.60
67817;DHT22;54614;47.576;7.524;2023-04-08T11:16:10;23.30;49.30
67817;DHT22;54614;47.576;7.524;2023-04-08T11:18:37;23.30;49.40
67817;DHT22;54614;47.576;7.524;2023-04-08T11:21:10;23.30;49.60
67817;DHT22;54614;47.576;7.524;2023-04-08T11:23:36;23.30;50.00
67817;DHT22;54614;47.576;7.524;2023-04-08T11:26:03;23.30;49.80
67817;DHT22;54614;47.576;7.524;2023-04-08T11:28:29;23.30;49.70
67817;DHT22;54614;47.576;7.524;2023-04-08T11:30:56;23.30;49.40
67817;DHT22;54614;47.576;7.524;2023-04-08T11:33:24;23.20;49.60
67817;DHT22;54614;47.576;7.524;2023-04-08T11:35:51;23.40;49.80
67817;DHT22;54614;47.576;7.524;2023-04-08T11:38:21;23.40;49.80
67817;DHT22;54614;47.576;7.524;2023-04-08T11:40:58;23.20;49.20
67817;DHT22;54614;47.576;7.524;2023-04-08T11:43:25;23.10;49.50
67817;DHT22;54614;47.576;7.524;2023-04-08T11:45:51;23.10;49.40
67817;DHT22;54614;47.576;7.524;2023-04-08T11:48:17;23.30;49.70
67817;DHT22;54614;47.576;7.524;2023-04-08T11:50:44;23.30;49.70
67817;DHT22;54614;47.576;7.524;2023-04-08T11:53:20;23.30;49.90
67817;DHT22;54614;47.576;7.524;2023-04-08T11:55:47;23.30;49.50
67817;DHT22;54614;47.576;7.524;2023-04-08T11:58:13;23.30;49.50
67817;DHT22;54614;47.576;7.524;2023-04-08T12:00:40;23.30;49.60
67817;DHT22;54614;47.576;7.524;2023-04-08T12:03:07;23.00;49.60
67817;DHT22;54614;47.576;7.524;2023-04-08T12:05:33;23.40;49.90
67817;DHT22;54614;47.576;7.524;2023-04-08T12:07:59;23.30;49.90
67817;DHT22;54614;47.576;7.524;2023-04-08T12:10:24;23.30;49.80
67817;DHT22;54614;47.576;7.524;2023-04-08T12:12:51;23.40;49.60
67817;DHT22;54614;47.576;7.524;2023-04-08T12:15:17;23.30;49.70
67817;DHT22;54614;47.576;7.524;2023-04-08T12:17:43;23.30;49.70
67817;DHT22;54614;47.576;7.524;2023-04-08T12:20:12;23.30;49.70
67817;DHT22;54614;47.576;7.524;2023-04-08T12:22:38;23.30;49.60
67817;DHT22;54614;47.576;7.524;2023-04-08T12:25:05;23.30;49.60
67817;DHT22;54614;47.576;7.524;2023-04-08T12:27:31;23.30;49.70
67817;DHT22;54614;47.576;7.524;2023-04-08T12:30:01;23.30;49.70
67817;DHT22;54614;47.576;7.524;2023-04-08T12:32:28;23.10;49.30
67817;DHT22;54614;47.576;7.524;2023-04-08T12:34:54;23.30;49.60
67817;DHT22;54614;47.576;7.524;2023-04-08T12:37:20;23.30;49.60
67817;DHT22;54614;47.576;7.524;2023-04-08T12:39:46;23.30;49.60
67817;DHT22;54614;47.576;7.524;2023-04-08T12:42:13;22.90;49.80
67817;DHT22;54614;47.576;7.524;2023-04-08T12:44:39;23.30;49.70
67817;DHT22;54614;47.576;7.524;2023-04-08T12:47:05;23.30;49.80
67817;DHT22;54614;47.576;7.524;2023-04-08T12:49:30;23.30;49.90
67817;DHT22;54614;47.576;7.524;2023-04-08T12:51:56;23.30;50.50
67817;DHT22;54614;47.576;7.524;2023-04-08T12:54:22;23.30;50.10
67817;DHT22;54614;47.576;7.524;2023-04-08T12:56:48;23.30;49.60
67817;DHT22;54614;47.576;7.524;2023-04-08T12:59:14;23.40;50.20
67817;DHT22;54614;47.576;7.524;2023-04-08T13:01:40;23.30;49.60
67817;DHT22;54614;47.576;7.524;2023-04-08T13:04:06;23.30;49.90
67817;DHT22;54614;47.576;7.524;2023-04-08T13:06:32;23.40;50.00
67817;DHT22;54614;47.576;7.524;2023-04-08T13:08:58;23.30;50.00
67817;DHT22;54614;47.576;7.524;2023-04-08T13:11:24;24.00;50.40
67817;DHT22;54614;47.576;7.524;2023-04-08T13:13:50;23.40;50.00
67817;DHT22;54614;47.576;7.524;2023-04-08T13:16:17;23.40;50.10
67817;DHT22;54614;47.576;7.524;2023-04-08T13:18:42;23.40;50.00
67817;DHT22;54614;47.576;7.524;2023-04-08T13:21:08;23.30;49.90
67817;DHT22;54614;47.576;7.524;2023-04-08T13:23:34;23.40;50.00
67817;DHT22;54614;47.576;7.524;2023-04-08T13:26:01;23.40;49.50
67817;DHT22;54614;47.576;7.524;2023-04-08T13:28:27;23.40;50.00
67817;DHT22;54614;47.576;7.524;2023-04-08T13:30:53;23.40;50.70
67817;DHT22;54614;47.576;7.524;2023-04-08T13:33:20;23.40;49.70
67817;DHT22;54614;47.576;7.524;2023-04-08T13:35:46;23.40;49.70
67817;DHT22;54614;47.576;7.524;2023-04-08T13:38:12;23.50;49.60
67817;DHT22;54614;47.576;7.524;2023-04-08T13:40:38;23.40;49.80
67817;DHT22;54614;47.576;7.524;2023-04-08T13:43:04;23.40;50.10
67817;DHT22;54614;47.576;7.524;2023-04-08T13:45:30;23.40;50.00
67817;DHT22;54614;47.576;7.524;2023-04-08T13:47:56;23.40;50.50
67817;DHT22;54614;47.576;7.524;2023-04-08T13:50:22;23.50;50.10
67817;DHT22;54614;47.576;7.524;2023-04-08T13:52:48;23.40;49.90
67817;DHT22;54614;47.576;7.524;2023-04-08T13:55:14;23.30;49.90
67817;DHT22;54614;47.576;7.524;2023-04-08T13:57:40;23.40;49.80
67817;DHT22;54614;47.576;7.524;2023-04-08T14:00:06;23.40;49.70
67817;DHT22;54614;47.576;7.524;2023-04-08T14:02:33;23.30;49.60
67817;DHT22;54614;47.576;7.524;2023-04-08T14:04:59;23.40;50.30
67817;DHT22;54614;47.576;7.524;2023-04-08T14:07:25;23.40;50.40
67817;DHT22;54614;47.576;7.524;2023-04-08T14:09:51;23.40;50.20
67817;DHT22;54614;47.576;7.524;2023-04-08T14:12:16;23.50;50.10
67817;DHT22;54614;47.576;7.524;2023-04-08T14:14:42;23.40;50.30
67817;DHT22;54614;47.576;7.524;2023-04-08T14:17:08;23.40;50.30
67817;DHT22;54614;47.576;7.524;2023-04-08T14:19:34;23.40;50.40
67817;DHT22;54614;47.576;7.524;2023-04-08T14:22:00;23.40;50.60
67817;DHT22;54614;47.576;7.524;2023-04-08T14:24:26;23.30;50.50
67817;DHT22;54614;47.576;7.524;2023-04-08T14:26:51;23.40;50.40
67817;DHT22;54614;47.576;7.524;2023-04-08T14:29:17;23.50;50.70
67817;DHT22;54614;47.576;7.524;2023-04-08T14:31:43;23.40;50.60
67817;DHT22;54614;47.576;7.524;2023-04-08T14:34:09;23.40;50.40
67817;DHT22;54614;47.576;7.524;2023-04-08T14:36:35;23.40;50.30
67817;DHT22;54614;47.576;7.524;2023-04-08T14:39:01;23.40;50.80
67817;DHT22;54614;47.576;7.524;2023-04-08T14:41:27;23.40;50.30
67817;DHT22;54614;47.576;7.524;2023-04-08T14:43:53;23.40;50.40
67817;DHT22;54614;47.576;7.524;2023-04-08T14:46:20;23.40;50.80
67817;DHT22;54614;47.576;7.524;2023-04-08T14:48:46;23.30;50.60
67817;DHT22;54614;47.576;7.524;2023-04-08T14:51:12;23.30;48.80
67817;DHT22;54614;47.576;7.524;2023-04-08T14:53:38;23.30;48.70
67817;DHT22;54614;47.576;7.524;2023-04-08T14:56:04;23.30;48.60
67817;DHT22;54614;47.576;7.524;2023-04-08T14:58:30;23.30;48.80
67817;DHT22;54614;47.576;7.524;2023-04-08T15:00:56;23.30;48.80
67817;DHT22;54614;47.576;7.524;2023-04-08T15:03:22;23.30;48.80
67817;DHT22;54614;47.576;7.524;2023-04-08T15:05:47;23.30;48.90
67817;DHT22;54614;47.576;7.524;2023-04-08T15:08:14;23.30;48.80
67817;DHT22;54614;47.576;7.524;2023-04-08T15:10:40;23.30;48.90
67817;DHT22;54614;47.576;7.524;2023-04-08T15:13:05;23.30;48.70
67817;DHT22;54614;47.576;7.524;2023-04-08T15:15:31;23.30;48.50
67817;DHT22;54614;47.576;7.524;2023-04-08T15:17:57;23.30;48.50
67817;DHT22;54614;47.576;7.524;2023-04-08T15:20:23;23.20;55.30
67817;DHT22;54614;47.576;7.524;2023-04-08T15:22:49;23.20;58.10
67817;DHT22;54614;47.576;7.524;2023-04-08T15:25:15;23.10;54.60
67817;DHT22;54614;47.576;7.524;2023-04-08T15:27:41;23.20;53.30
67817;DHT22;54614;47.576;7.524;2023-04-08T15:30:08;23.20;50.90
67817;DHT22;54614;47.576;7.524;2023-04-08T15:32:34;23.30;50.70
67817;DHT22;54614;47.576;7.524;2023-04-08T15:35:00;23.30;50.70
67817;DHT22;54614;47.576;7.524;2023-04-08T15:37:26;23.30;51.20
67817;DHT22;54614;47.576;7.524;2023-04-08T15:39:52;23.10;52.20
67817;DHT22;54614;47.576;7.524;2023-04-08T15:42:19;23.00;52.20
67817;DHT22;54614;47.576;7.524;2023-04-08T15:44:46;23.00;52.20
67817;DHT22;54614;47.576;7.524;2023-04-08T15:47:12;23.20;51.90
67817;DHT22;54614;47.576;7.524;2023-04-08T15:49:38;23.20;52.10
67817;DHT22;54614;47.576;7.524;2023-04-08T15:52:04;23.10;52.30
67817;DHT22;54614;47.576;7.524;2023-04-08T15:54:32;23.10;52.50
67817;DHT22;54614;47.576;7.524;2023-04-08T15:56:58;23.00;52.70